Time;durP1;ratioP1;P1;durP2;ratioP2;P2;SDS_P1;SDS_P2;PMS_P1;PMS_P2;Temp;Humidity;BMP_temperature;BMP_pressure;BME280_temperature;BME280_humidity;BME280_pressure;Samples;Min_cycle;Max_cycle;Signal;HPM_P1;HPM_P2
2024/01/29 00:00:48;;;;;;;5.93;5.30;;;;;;;;;;5050932;28;20245;-82
2024/01/29 00:03:15;;;;;;;6.87;5.87;;;;;;;;;;5032059;28;20233;-83
2024/01/29 00:05:42;;;;;;;8.23;5.80;;;;;;;;;;5046997;28;20751;-83
2024/01/29 00:08:09;;;;;;;11.90;6.60;;;;;;;;;;5051748;28;20210;-84
2024/01/29 00:10:36;;;;;;;5.77;5.23;;;;;;;;;;5050998;28;20765;-84
2024/01/29 00:13:05;;;;;;;6.80;5.27;;;;;;;;;;5051713;28;20228;-83
2024/01/29 00:15:32;;;;;;;6.27;5.10;;;;;;;;;;5051378;28;20262;-83
2024/01/29 00:17:59;;;;;;;9.43;5.70;;;;;;;;;;5051517;28;20626;-84
2024/01/29 00:20:26;;;;;;;7.23;6.40;;;;;;;;;;5050865;28;20603;-83
2024/01/29 00:22:53;;;;;;;10.27;6.40;;;;;;;;;;5051561;28;20240;-83
2024/01/29 00:25:20;;;;;;;9.00;6.93;;;;;;;;;;5051149;28;20236;-83
2024/01/29 00:27:47;;;;;;;11.63;7.10;;;;;;;;;;5051538;28;20291;-83
2024/01/29 00:30:16;;;;;;;9.67;7.17;;;;;;;;;;5051128;28;20199;-83
2024/01/29 00:32:43;;;;;;;10.93;7.00;;;;;;;;;;5051380;28;20227;-83
2024/01/29 00:35:10;;;;;;;8.13;6.93;;;;;;;;;;5051197;28;20209;-84
2024/01/29 00:37:37;;;;;;;11.40;7.47;;;;;;;;;;5051696;28;20199;-83
2024/01/29 00:40:05;;;;;;;10.17;6.53;;;;;;;;;;5050527;28;20225;-84
2024/01/29 00:42:32;;;;;;;8.40;6.60;;;;;;;;;;5051307;28;20242;-83
2024/01/29 00:44:59;;;;;;;6.40;5.67;;;;;;;;;;5051376;28;20277;-83
2024/01/29 00:47:27;;;;;;;7.40;6.23;;;;;;;;;;5050844;28;20227;-83
2024/01/29 00:49:53;;;;;;;8.33;6.20;;;;;;;;;;5051125;28;20209;-83
2024/01/29 00:52:20;;;;;;;8.80;6.50;;;;;;;;;;5050666;28;20653;-83
2024/01/29 00:54:47;;;;;;;6.00;5.23;;;;;;;;;;5051504;28;20201;-83
2024/01/29 00:57:15;;;;;;;5.90;5.27;;;;;;;;;;5054148;28;20732;-83
2024/01/29 00:59:42;;;;;;;5.47;5.07;;;;;;;;;;5055029;28;20199;-83
2024/01/29 01:02:10;;;;;;;7.83;5.43;;;;;;;;;;5054466;28;20244;-83
2024/01/29 01:04:39;;;;;;;7.50;5.60;;;;;;;;;;5055100;28;20684;-83
2024/01/29 01:07:06;;;;;;;8.53;5.90;;;;;;;;;;5054459;28;20239;-83
2024/01/29 01:09:33;;;;;;;6.73;5.63;;;;;;;;;;5054579;28;20204;-83
2024/01/29 01:12:00;;;;;;;11.43;6.27;;;;;;;;;;5054335;28;20289;-83
2024/01/29 01:14:27;;;;;;;9.80;5.90;;;;;;;;;;5054966;28;20212;-83
2024/01/29 01:16:54;;;;;;;9.63;5.90;;;;;;;;;;5054426;28;20254;-83
2024/01/29 01:19:21;;;;;;;10.30;6.27;;;;;;;;;;5054597;28;20213;-84
2024/01/29 01:21:50;;;;;;;7.00;5.87;;;;;;;;;;5054145;28;20235;-83
2024/01/29 01:24:17;;;;;;;8.50;6.20;;;;;;;;;;5054904;28;20201;-83
2024/01/29 01:26:44;;;;;;;7.00;6.27;;;;;;;;;;5054212;28;20284;-83
2024/01/29 01:29:11;;;;;;;8.93;5.30;;;;;;;;;;5054396;28;20206;-83
2024/01/29 01:31:38;;;;;;;7.37;6.03;;;;;;;;;;5053999;28;20262;-83
2024/01/29 01:34:05;;;;;;;5.83;5.23;;;;;;;;;;5054494;28;20607;-83
2024/01/29 01:36:32;;;;;;;7.50;6.80;;;;;;;;;;5053781;28;20259;-83
2024/01/29 01:39:00;;;;;;;7.27;6.30;;;;;;;;;;5054104;28;20211;-83
2024/01/29 01:41:28;;;;;;;12.87;6.70;;;;;;;;;;5053779;28;20242;-83
2024/01/29 01:43:55;;;;;;;8.20;6.57;;;;;;;;;;5054316;28;20673;-83
2024/01/29 01:46:23;;;;;;;9.43;6.00;;;;;;;;;;5053748;28;20246;-83
2024/01/29 01:48:51;;;;;;;7.37;5.67;;;;;;;;;;5054183;28;20349;-84
2024/01/29 01:51:18;;;;;;;8.70;5.20;;;;;;;;;;5038696;28;20326;-84
2024/01/29 01:53:46;;;;;;;6.60;5.73;;;;;;;;;;5054354;28;20222;-83
2024/01/29 01:56:14;;;;;;;7.70;6.37;;;;;;;;;;5053710;28;20652;-84
2024/01/29 01:58:41;;;;;;;8.57;5.50;;;;;;;;;;5053613;28;20206;-84
2024/01/29 02:01:09;;;;;;;7.23;6.47;;;;;;;;;;5052985;28;20230;-83
2024/01/29 02:03:36;;;;;;;6.40;5.67;;;;;;;;;;5053523;28;20206;-84
2024/01/29 02:06:03;;;;;;;11.33;5.60;;;;;;;;;;5053056;28;20231;-84
2024/01/29 02:08:30;;;;;;;5.80;5.17;;;;;;;;;;5042982;28;20211;-83
2024/01/29 02:11:00;;;;;;;6.83;4.77;;;;;;;;;;5052288;28;20241;-83
2024/01/29 02:13:28;;;;;;;6.30;5.00;;;;;;;;;;5053783;28;20571;-83
2024/01/29 02:15:55;;;;;;;7.53;5.30;;;;;;;;;;5053122;28;20236;-83
2024/01/29 02:18:23;;;;;;;8.60;5.60;;;;;;;;;;5053482;28;20196;-83
2024/01/29 02:20:50;;;;;;;8.60;6.43;;;;;;;;;;5052851;28;20249;-82
2024/01/29 02:23:18;;;;;;;9.63;6.30;;;;;;;;;;5053510;28;20218;-83
2024/01/29 02:25:45;;;;;;;6.57;5.47;;;;;;;;;;5053168;28;20234;-83
2024/01/29 02:28:12;;;;;;;5.43;4.93;;;;;;;;;;5053239;28;20212;-83
2024/01/29 02:30:39;;;;;;;10.30;6.67;;;;;;;;;;5052868;28;20233;-83
2024/01/29 02:33:06;;;;;;;8.63;6.10;;;;;;;;;;5048062;28;20231;-83
2024/01/29 02:35:33;;;;;;;6.07;5.47;;;;;;;;;;5053024;28;20237;-83
2024/01/29 02:38:00;;;;;;;7.33;6.23;;;;;;;;;;5053327;28;20569;-83
2024/01/29 02:40:28;;;;;;;9.00;6.27;;;;;;;;;;5052781;28;20317;-83
2024/01/29 02:42:56;;;;;;;6.63;5.87;;;;;;;;;;5053066;28;20599;-83
2024/01/29 02:45:23;;;;;;;6.17;5.60;;;;;;;;;;5052950;28;20245;-84
2024/01/29 02:47:50;;;;;;;9.93;5.37;;;;;;;;;;5053104;28;20206;-83
2024/01/29 02:50:17;;;;;;;8.17;6.63;;;;;;;;;;5052504;28;20197;-83
2024/01/29 02:52:44;;;;;;;7.67;5.63;;;;;;;;;;5053191;28;20238;-84
2024/01/29 02:55:11;;;;;;;8.53;5.73;;;;;;;;;;5048163;28;20210;-83
2024/01/29 02:57:39;;;;;;;6.43;4.60;;;;;;;;;;5052885;28;20200;-83
2024/01/29 03:00:07;;;;;;;6.93;5.23;;;;;;;;;;5053729;28;20203;-83
2024/01/29 03:02:34;;;;;;;9.77;5.57;;;;;;;;;;5055102;28;20231;-84
2024/01/29 03:05:01;;;;;;;6.33;5.40;;;;;;;;;;5055231;28;20206;-84
2024/01/29 03:07:28;;;;;;;6.50;4.60;;;;;;;;;;5053397;28;20237;-84
2024/01/29 03:09:55;;;;;;;5.83;5.10;;;;;;;;;;5053047;28;20661;-84
2024/01/29 03:12:22;;;;;;;8.73;5.33;;;;;;;;;;5052105;28;20234;-84
2024/01/29 03:14:51;;;;;;;8.63;5.47;;;;;;;;;;5052466;28;20210;-83
2024/01/29 03:17:18;;;;;;;5.63;4.70;;;;;;;;;;5051949;28;20252;-84
2024/01/29 03:19:45;;;;;;;8.30;5.70;;;;;;;;;;5051695;28;20209;-84
2024/01/29 03:22:12;;;;;;;6.23;5.20;;;;;;;;;;5051888;28;20919;-84
2024/01/29 03:24:39;;;;;;;6.30;4.57;;;;;;;;;;5052436;28;20196;-83
2024/01/29 03:27:06;;;;;;;5.87;5.17;;;;;;;;;;5052031;28;20605;-81
2024/01/29 03:29:33;;;;;;;8.23;5.20;;;;;;;;;;5052145;28;20231;-82
2024/01/29 03:32:01;;;;;;;5.87;5.10;;;;;;;;;;5051739;28;20234;-82
2024/01/29 03:34:28;;;;;;;7.20;5.20;;;;;;;;;;5052270;28;20198;-82
2024/01/29 03:36:55;;;;;;;6.37;5.63;;;;;;;;;;5051687;28;20230;-82
2024/01/29 03:39:22;;;;;;;5.90;5.33;;;;;;;;;;5052198;28;20217;-82
2024/01/29 03:41:49;;;;;;;12.03;5.57;;;;;;;;;;5051648;28;20231;-82
2024/01/29 03:44:17;;;;;;;5.27;4.77;;;;;;;;;;5052919;28;20222;-82
2024/01/29 03:46:44;;;;;;;7.30;5.80;;;;;;;;;;5060007;28;20249;-82
2024/01/29 03:49:12;;;;;;;7.30;4.80;;;;;;;;;;5076394;28;20190;-82
2024/01/29 03:51:39;;;;;;;6.13;5.53;;;;;;;;;;5058097;28;20225;-81
2024/01/29 03:54:06;;;;;;;8.40;4.80;;;;;;;;;;5052226;28;20676;-82
2024/01/29 03:56:33;;;;;;;6.50;5.47;;;;;;;;;;5051679;28;20768;-81
2024/01/29 03:59:00;;;;;;;5.47;4.87;;;;;;;;;;5052146;28;20210;-81
2024/01/29 04:01:27;;;;;;;7.40;5.43;;;;;;;;;;5051645;28;20238;-81
2024/01/29 04:03:55;;;;;;;4.50;4.13;;;;;;;;;;5051995;28;20202;-82
2024/01/29 04:06:24;;;;;;;5.07;4.50;;;;;;;;;;5052745;28;20322;-82
2024/01/29 04:08:51;;;;;;;7.57;5.13;;;;;;;;;;5052270;28;20696;-82
2024/01/29 04:11:18;;;;;;;6.27;4.37;;;;;;;;;;5051142;28;20238;-82
2024/01/29 04:13:45;;;;;;;5.57;4.30;;;;;;;;;;5051979;28;20194;-82
2024/01/29 04:16:12;;;;;;;4.70;4.27;;;;;;;;;;5051279;28;20667;-82
2024/01/29 04:18:39;;;;;;;4.97;4.57;;;;;;;;;;5051836;28;20206;-82
2024/01/29 04:21:07;;;;;;;5.93;4.57;;;;;;;;;;5051081;28;20704;-82
2024/01/29 04:23:35;;;;;;;8.57;4.63;;;;;;;;;;5051899;28;20244;-82
2024/01/29 04:26:02;;;;;;;5.83;5.23;;;;;;;;;;5051290;28;20243;-82
2024/01/29 04:28:29;;;;;;;6.63;5.80;;;;;;;;;;5051699;28;20205;-83
2024/01/29 04:30:57;;;;;;;7.23;5.50;;;;;;;;;;5052167;28;20229;-83
2024/01/29 04:33:24;;;;;;;5.80;5.17;;;;;;;;;;5041181;28;20202;-83
2024/01/29 04:35:51;;;;;;;10.43;4.97;;;;;;;;;;5055309;28;20233;-83
2024/01/29 04:38:18;;;;;;;7.07;5.23;;;;;;;;;;5055902;28;20205;-83
2024/01/29 04:40:46;;;;;;;5.43;4.87;;;;;;;;;;5055196;28;20256;-83
2024/01/29 04:43:13;;;;;;;7.33;4.97;;;;;;;;;;5055599;28;20232;-83
2024/01/29 04:45:41;;;;;;;6.37;5.77;;;;;;;;;;5055061;28;20620;-83
2024/01/29 04:48:08;;;;;;;5.90;4.83;;;;;;;;;;5055715;28;20301;-83
2024/01/29 04:50:35;;;;;;;5.00;4.53;;;;;;;;;;5054571;28;20630;-83
2024/01/29 04:53:03;;;;;;;6.90;5.27;;;;;;;;;;5056807;28;20221;-83
2024/01/29 04:55:30;;;;;;;6.17;5.03;;;;;;;;;;5056569;28;20240;-83
2024/01/29 04:57:59;;;;;;;6.37;5.00;;;;;;;;;;5056049;28;20205;-83
2024/01/29 05:00:26;;;;;;;5.50;5.07;;;;;;;;;;5054893;28;20237;-84
2024/01/29 05:02:53;;;;;;;6.00;4.80;;;;;;;;;;5055226;28;20616;-83
2024/01/29 05:05:20;;;;;;;4.87;4.47;;;;;;;;;;5054919;28;20202;-83
2024/01/29 05:07:47;;;;;;;7.77;4.83;;;;;;;;;;5055081;28;20199;-83
2024/01/29 05:10:15;;;;;;;6.00;5.40;;;;;;;;;;5054732;28;20256;-83
2024/01/29 05:12:42;;;;;;;6.33;4.63;;;;;;;;;;5055125;28;20218;-83
2024/01/29 05:15:14;;;;;;;6.13;4.77;;;;;;;;;;5055334;28;20284;-83
2024/01/29 05:17:41;;;;;;;4.77;4.27;;;;;;;;;;5055471;28;20206;-83
2024/01/29 05:20:09;;;;;;;5.30;4.90;;;;;;;;;;5054313;28;20221;-83
2024/01/29 05:22:36;;;;;;;5.97;5.00;;;;;;;;;;5054556;28;20233;-83
2024/01/29 05:25:04;;;;;;;4.10;3.80;;;;;;;;;;5054709;28;20218;-84
2024/01/29 05:27:31;;;;;;;4.67;4.27;;;;;;;;;;5054850;28;20205;-83
2024/01/29 05:29:58;;;;;;;6.60;4.70;;;;;;;;;;5055219;28;20210;-83
2024/01/29 05:32:26;;;;;;;5.57;4.90;;;;;;;;;;5043461;28;20624;-83
2024/01/29 05:34:53;;;;;;;5.43;4.57;;;;;;;;;;5054871;28;20665;-83
2024/01/29 05:37:20;;;;;;;5.50;4.90;;;;;;;;;;5054275;28;20236;-83
2024/01/29 05:39:47;;;;;;;7.40;5.03;;;;;;;;;;5054504;28;20206;-83
2024/01/29 05:42:14;;;;;;;5.30;4.50;;;;;;;;;;5054095;28;20234;-84
2024/01/29 05:44:41;;;;;;;6.03;4.43;;;;;;;;;;5055623;28;20203;-83
2024/01/29 05:47:09;;;;;;;6.53;5.03;;;;;;;;;;5054444;28;20261;-81
2024/01/29 05:49:37;;;;;;;5.77;5.20;;;;;;;;;;5075134;28;20206;-81
2024/01/29 05:52:04;;;;;;;6.03;5.43;;;;;;;;;;5067430;28;20313;-84
2024/01/29 05:54:31;;;;;;;5.30;4.60;;;;;;;;;;5055295;28;20625;-84
2024/01/29 05:56:58;;;;;;;9.00;4.97;;;;;;;;;;5053969;28;20246;-83
2024/01/29 05:59:25;;;;;;;5.27;4.40;;;;;;;;;;5055294;28;20206;-84
2024/01/29 06:01:52;;;;;;;5.50;4.70;;;;;;;;;;5054164;28;20236;-84
2024/01/29 06:04:19;;;;;;;6.07;5.37;;;;;;;;;;5052634;28;20654;-83
2024/01/29 06:06:48;;;;;;;8.77;5.70;;;;;;;;;;5052908;28;20707;-84
2024/01/29 06:09:15;;;;;;;6.00;5.40;;;;;;;;;;5053499;28;20198;-84
2024/01/29 06:11:42;;;;;;;7.00;5.63;;;;;;;;;;5053555;28;20587;-83
2024/01/29 06:14:09;;;;;;;5.70;5.17;;;;;;;;;;5053640;28;20214;-81
2024/01/29 06:16:36;;;;;;;8.23;5.27;;;;;;;;;;5053315;28;20261;-80
2024/01/29 06:19:03;;;;;;;5.73;5.23;;;;;;;;;;5053487;28;20256;-82
2024/01/29 06:21:30;;;;;;;6.07;5.30;;;;;;;;;;5053085;28;20234;-81
2024/01/29 06:23:58;;;;;;;9.87;4.77;;;;;;;;;;5053818;28;20614;-81
2024/01/29 06:26:25;;;;;;;6.27;4.70;;;;;;;;;;5053115;28;20238;-82
2024/01/29 06:28:53;;;;;;;5.50;5.00;;;;;;;;;;5053340;28;20206;-82
2024/01/29 06:31:20;;;;;;;5.87;5.37;;;;;;;;;;5053001;28;20264;-82
2024/01/29 06:33:47;;;;;;;6.90;5.40;;;;;;;;;;5053487;28;20194;-82
2024/01/29 06:36:16;;;;;;;6.93;5.67;;;;;;;;;;5052871;28;20234;-82
2024/01/29 06:38:43;;;;;;;6.80;4.77;;;;;;;;;;5053299;28;20289;-81
2024/01/29 06:41:19;;;;;;;7.17;5.60;;;;;;;;;;5052716;28;20313;-82
2024/01/29 06:43:46;;;;;;;5.40;4.90;;;;;;;;;;5053290;28;20641;-81
2024/01/29 06:46:13;;;;;;;7.53;5.70;;;;;;;;;;5052637;28;20238;-82
2024/01/29 06:48:40;;;;;;;5.07;4.57;;;;;;;;;;5052408;28;20202;-82
2024/01/29 06:51:07;;;;;;;7.13;5.07;;;;;;;;;;5049640;28;20606;-82
2024/01/29 06:53:35;;;;;;;7.33;5.77;;;;;;;;;;5052035;28;20206;-82
2024/01/29 06:56:03;;;;;;;6.33;5.20;;;;;;;;;;5052580;28;20230;-82
2024/01/29 06:58:31;;;;;;;5.43;5.03;;;;;;;;;;5052864;28;20699;-82
2024/01/29 07:00:59;;;;;;;5.60;5.10;;;;;;;;;;5052374;28;20241;-81
2024/01/29 07:03:26;;;;;;;5.23;4.80;;;;;;;;;;5052689;28;20229;-82
2024/01/29 07:05:54;;;;;;;6.20;5.30;;;;;;;;;;5052482;28;20283;-82
2024/01/29 07:08:21;;;;;;;6.60;5.63;;;;;;;;;;5052789;28;20213;-82
2024/01/29 07:10:48;;;;;;;5.20;4.67;;;;;;;;;;5052610;28;20241;-81
2024/01/29 07:13:15;;;;;;;6.17;5.57;;;;;;;;;;5052857;28;20226;-82
2024/01/29 07:15:44;;;;;;;7.30;6.20;;;;;;;;;;5052415;28;20245;-81
2024/01/29 07:18:11;;;;;;;10.00;4.93;;;;;;;;;;5052483;28;20253;-81
2024/01/29 07:20:40;;;;;;;7.80;5.60;;;;;;;;;;5046455;28;20716;-81
2024/01/29 07:23:08;;;;;;;6.27;5.77;;;;;;;;;;5058248;28;20320;-81
2024/01/29 07:25:35;;;;;;;6.90;6.20;;;;;;;;;;5052848;28;20238;-81
2024/01/29 07:28:03;;;;;;;6.57;5.77;;;;;;;;;;5054787;28;20206;-82
2024/01/29 07:30:30;;;;;;;7.00;6.30;;;;;;;;;;5048775;28;20242;-81
2024/01/29 07:32:58;;;;;;;7.87;5.97;;;;;;;;;;5051344;28;20696;-81
2024/01/29 07:35:26;;;;;;;6.17;5.67;;;;;;;;;;5050045;28;20260;-81
2024/01/29 07:37:53;;;;;;;6.97;5.40;;;;;;;;;;5051513;28;20202;-81
2024/01/29 07:40:20;;;;;;;7.40;5.57;;;;;;;;;;5050070;28;20197;-81
2024/01/29 07:42:47;;;;;;;10.00;6.57;;;;;;;;;;5042380;28;20699;-81
2024/01/29 07:45:17;;;;;;;10.17;6.97;;;;;;;;;;5042582;28;20202;-82
2024/01/29 07:47:44;;;;;;;8.23;6.40;;;;;;;;;;5051981;28;20235;-81
2024/01/29 07:50:14;;;;;;;7.50;6.20;;;;;;;;;;5052642;28;20213;-82
2024/01/29 07:52:41;;;;;;;5.83;5.30;;;;;;;;;;5051311;28;20222;-81
2024/01/29 07:55:08;;;;;;;5.73;5.13;;;;;;;;;;5053604;28;20210;-81
2024/01/29 07:57:35;;;;;;;6.70;6.10;;;;;;;;;;5051566;28;20213;-81
2024/01/29 08:00:03;;;;;;;6.37;5.80;;;;;;;;;;5049936;28;20206;-82
2024/01/29 08:02:41;;;;;;;5.83;4.80;;;;;;;;;;5050324;28;20242;-80
2024/01/29 08:05:08;;;;;;;8.10;7.20;;;;;;;;;;5050197;28;20210;-80
2024/01/29 08:07:37;;;;;;;11.37;6.17;;;;;;;;;;5050865;28;20221;-80
2024/01/29 08:10:05;;;;;;;7.43;6.07;;;;;;;;;;5049566;28;20213;-80
2024/01/29 08:12:32;;;;;;;6.60;5.90;;;;;;;;;;5050514;28;20223;-80
2024/01/29 08:14:59;;;;;;;7.43;5.50;;;;;;;;;;5050401;28;20209;-80
2024/01/29 08:17:26;;;;;;;7.53;6.10;;;;;;;;;;5042003;28;20279;-80
2024/01/29 08:19:53;;;;;;;6.90;6.17;;;;;;;;;;5050060;28;20830;-80
2024/01/29 08:22:20;;;;;;;6.07;5.37;;;;;;;;;;5043523;28;20685;-79
2024/01/29 08:24:49;;;;;;;6.70;5.10;;;;;;;;;;5050467;28;20206;-80
2024/01/29 08:27:16;;;;;;;7.00;5.00;;;;;;;;;;5049586;28;20233;-80
2024/01/29 08:29:43;;;;;;;5.47;4.97;;;;;;;;;;5050256;28;20214;-80
2024/01/29 08:32:10;;;;;;;5.83;5.23;;;;;;;;;;5044893;28;20235;-80
2024/01/29 08:34:37;;;;;;;8.07;5.50;;;;;;;;;;5042267;28;20580;-80
2024/01/29 08:37:05;;;;;;;5.73;5.23;;;;;;;;;;5049764;28;20236;-80
2024/01/29 08:39:32;;;;;;;6.97;5.80;;;;;;;;;;5050294;28;20241;-79
2024/01/29 08:42:00;;;;;;;7.83;5.67;;;;;;;;;;5045451;28;20257;-80
2024/01/29 08:44:27;;;;;;;10.07;6.90;;;;;;;;;;5050366;28;20207;-80
2024/01/29 08:46:54;;;;;;;10.40;6.43;;;;;;;;;;5049735;28;20730;-80
2024/01/29 08:49:21;;;;;;;9.03;6.60;;;;;;;;;;5041796;28;20831;-81
2024/01/29 08:51:48;;;;;;;8.43;7.50;;;;;;;;;;5049082;28;20238;-80
2024/01/29 08:54:16;;;;;;;10.57;8.07;;;;;;;;;;5039557;28;20261;-80
2024/01/29 08:56:43;;;;;;;13.23;9.27;;;;;;;;;;5044609;28;20245;-80
2024/01/29 08:59:12;;;;;;;12.67;8.73;;;;;;;;;;5050038;28;20636;-81
2024/01/29 09:01:39;;;;;;;13.13;8.23;;;;;;;;;;5036012;28;20234;-81
2024/01/29 09:04:06;;;;;;;17.20;8.57;;;;;;;;;;5034950;28;20238;-80
2024/01/29 09:06:33;;;;;;;15.37;8.63;;;;;;;;;;5049491;28;20716;-81
2024/01/29 09:09:00;;;;;;;16.83;8.60;;;;;;;;;;5049716;28;20225;-80
2024/01/29 09:11:27;;;;;;;12.23;7.37;;;;;;;;;;5042037;28;20242;-81
2024/01/29 09:13:54;;;;;;;12.37;8.30;;;;;;;;;;5047462;28;20194;-81
2024/01/29 09:16:23;;;;;;;9.60;8.17;;;;;;;;;;5041783;28;20704;-81
2024/01/29 09:18:50;;;;;;;12.80;9.30;;;;;;;;;;5054066;28;20210;-81
2024/01/29 09:21:17;;;;;;;16.07;9.83;;;;;;;;;;5050151;28;20714;-81
2024/01/29 09:23:44;;;;;;;14.13;9.27;;;;;;;;;;5046789;28;20229;-81
2024/01/29 09:26:11;;;;;;;12.17;8.77;;;;;;;;;;5050467;28;20230;-81
2024/01/29 09:28:38;;;;;;;18.60;8.90;;;;;;;;;;5045131;28;20670;-81
2024/01/29 09:31:05;;;;;;;13.87;9.77;;;;;;;;;;5047606;28;20230;-81
2024/01/29 09:33:33;;;;;;;12.13;9.77;;;;;;;;;;5053390;28;20262;-80
2024/01/29 09:36:01;;;;;;;15.93;9.13;;;;;;;;;;5053058;28;20227;-81
2024/01/29 09:38:27;;;;;;;15.47;9.63;;;;;;;;;;5050751;28;20870;-81
2024/01/29 09:40:55;;;;;;;16.03;10.13;;;;;;;;;;5051689;28;20230;-81
2024/01/29 09:43:23;;;;;;;14.17;11.17;;;;;;;;;;5050466;28;20287;-81
2024/01/29 09:45:51;;;;;;;13.47;9.57;;;;;;;;;;5048669;28;20241;-80
2024/01/29 09:48:18;;;;;;;12.67;9.43;;;;;;;;;;5043500;28;20227;-81
2024/01/29 09:50:48;;;;;;;12.50;9.53;;;;;;;;;;5053132;28;20234;-81
2024/01/29 09:53:17;;;;;;;15.60;10.20;;;;;;;;;;5054560;28;20220;-81
2024/01/29 09:55:45;;;;;;;20.23;11.47;;;;;;;;;;5046877;28;20238;-81
2024/01/29 09:58:12;;;;;;;14.63;10.03;;;;;;;;;;5050551;28;20215;-80
2024/01/29 10:00:39;;;;;;;16.00;10.63;;;;;;;;;;5052616;28;20660;-82
2024/01/29 10:03:06;;;;;;;17.77;9.83;;;;;;;;;;5053167;28;20259;-82
2024/01/29 10:05:33;;;;;;;14.87;10.57;;;;;;;;;;5044119;28;20609;-81
2024/01/29 10:08:03;;;;;;;15.80;9.77;;;;;;;;;;5044729;28;20210;-82
2024/01/29 10:10:30;;;;;;;12.73;9.10;;;;;;;;;;5047188;28;20332;-82
2024/01/29 10:13:03;;;;;;;11.47;8.60;;;;;;;;;;5049076;28;20316;-82
2024/01/29 10:15:31;;;;;;;12.07;8.70;;;;;;;;;;5045066;28;20261;-82
2024/01/29 10:17:58;;;;;;;13.17;9.10;;;;;;;;;;5049155;28;20214;-82
2024/01/29 10:20:25;;;;;;;14.93;9.53;;;;;;;;;;5051854;28;20236;-82
2024/01/29 10:22:59;;;;;;;15.93;9.17;;;;;;;;;;5052955;28;20236;-82
2024/01/29 10:25:27;;;;;;;15.50;9.20;;;;;;;;;;5052434;28;20241;-82
2024/01/29 10:27:55;;;;;;;11.17;8.27;;;;;;;;;;5044016;28;20613;-82
2024/01/29 10:30:22;;;;;;;11.37;8.17;;;;;;;;;;5051871;28;20228;-81
2024/01/29 10:32:49;;;;;;;12.47;7.63;;;;;;;;;;5052440;28;20228;-82
2024/01/29 10:35:16;;;;;;;8.93;7.60;;;;;;;;;;5050506;28;20206;-82
2024/01/29 10:37:46;;;;;;;10.63;8.33;;;;;;;;;;5046210;28;20213;-82
2024/01/29 10:40:15;;;;;;;12.90;8.57;;;;;;;;;;5052045;28;20202;-82
2024/01/29 10:42:48;;;;;;;12.90;9.33;;;;;;;;;;5052543;28;20585;-82
2024/01/29 10:45:17;;;;;;;9.63;8.43;;;;;;;;;;5052129;28;20217;-82
2024/01/29 10:47:47;;;;;;;12.03;8.33;;;;;;;;;;5049859;28;20206;-82
2024/01/29 10:50:16;;;;;;;10.67;8.37;;;;;;;;;;5041045;28;20293;-82
2024/01/29 10:52:44;;;;;;;11.37;8.70;;;;;;;;;;5050211;28;20232;-83
2024/01/29 10:55:11;;;;;;;9.43;7.77;;;;;;;;;;5049962;28;20214;-83
2024/01/29 10:57:39;;;;;;;14.53;9.20;;;;;;;;;;5046250;28;20222;-83
2024/01/29 11:00:10;;;;;;;18.97;9.07;;;;;;;;;;5049015;28;20210;-83
2024/01/29 11:02:37;;;;;;;13.30;8.70;;;;;;;;;;5043128;28;20586;-83
2024/01/29 11:05:04;;;;;;;11.10;8.97;;;;;;;;;;5050931;28;20288;-83
2024/01/29 11:07:32;;;;;;;9.47;8.40;;;;;;;;;;5043468;28;20209;-83
2024/01/29 11:10:03;;;;;;;10.10;7.27;;;;;;;;;;5042377;28;20204;-82
2024/01/29 11:12:31;;;;;;;17.60;7.43;;;;;;;;;;5036569;28;20240;-82
2024/01/29 11:14:59;;;;;;;10.93;7.63;;;;;;;;;;5047216;28;20297;-83
2024/01/29 11:17:29;;;;;;;10.70;7.47;;;;;;;;;;5050503;28;20225;-82
2024/01/29 11:20:00;;;;;;;9.50;7.13;;;;;;;;;;5048175;28;20241;-82
2024/01/29 11:22:35;;;;;;;12.47;8.03;;;;;;;;;;5051476;28;20254;-82
2024/01/29 11:25:06;;;;;;;11.63;7.90;;;;;;;;;;5052576;28;20244;-86
2024/01/29 11:27:34;;;;;;;11.10;7.23;;;;;;;;;;5044333;28;20321;-83
2024/01/29 11:30:10;;;;;;;8.20;7.37;;;;;;;;;;5051564;28;20209;-84
2024/01/29 11:32:40;;;;;;;9.73;7.63;;;;;;;;;;5043959;28;20245;-83
2024/01/29 11:35:11;;;;;;;11.10;8.47;;;;;;;;;;5042716;28;20656;-83
2024/01/29 11:37:38;;;;;;;14.23;7.83;;;;;;;;;;5042959;28;20206;-81
2024/01/29 11:40:06;;;;;;;11.03;7.00;;;;;;;;;;5049837;28;20206;-82
2024/01/29 11:42:33;;;;;;;11.17;8.47;;;;;;;;;;5043263;28;20237;-81
2024/01/29 11:45:01;;;;;;;10.40;8.47;;;;;;;;;;5051400;28;20628;-82
2024/01/29 11:47:28;;;;;;;12.40;8.97;;;;;;;;;;5050979;28;20235;-83
2024/01/29 11:49:56;;;;;;;15.63;8.90;;;;;;;;;;5049331;28;20217;-82
2024/01/29 11:52:23;;;;;;;9.93;8.13;;;;;;;;;;5049435;28;20238;-82
2024/01/29 11:54:51;;;;;;;11.53;8.17;;;;;;;;;;5053343;28;20202;-82
2024/01/29 11:57:18;;;;;;;12.43;7.40;;;;;;;;;;5051079;28;20303;-82
2024/01/29 11:59:45;;;;;;;14.60;8.53;;;;;;;;;;5050193;28;20217;-83
2024/01/29 12:02:12;;;;;;;14.33;7.47;;;;;;;;;;5050199;28;20253;-83
2024/01/29 12:04:39;;;;;;;10.17;7.37;;;;;;;;;;5050645;28;20702;-84
2024/01/29 12:07:08;;;;;;;9.40;7.27;;;;;;;;;;5050333;28;20237;-81
2024/01/29 12:09:35;;;;;;;8.73;6.90;;;;;;;;;;5038675;28;20203;-81
2024/01/29 12:12:02;;;;;;;10.87;7.13;;;;;;;;;;5046434;28;20236;-81
2024/01/29 12:14:29;;;;;;;12.73;7.37;;;;;;;;;;5042252;28;20206;-81
2024/01/29 12:16:58;;;;;;;9.13;6.87;;;;;;;;;;5050366;28;20601;-81
2024/01/29 12:19:25;;;;;;;8.30;6.83;;;;;;;;;;5050169;28;20227;-81
2024/01/29 12:21:52;;;;;;;9.13;6.93;;;;;;;;;;5041569;28;20233;-81
2024/01/29 12:24:21;;;;;;;9.37;6.93;;;;;;;;;;5041864;28;20230;-81
2024/01/29 12:26:48;;;;;;;8.37;6.67;;;;;;;;;;5044499;28;20246;-81
2024/01/29 12:29:16;;;;;;;8.43;6.87;;;;;;;;;;5039741;28;20206;-80
2024/01/29 12:31:43;;;;;;;7.67;6.77;;;;;;;;;;5049879;28;20236;-82
2024/01/29 12:34:19;;;;;;;10.50;7.07;;;;;;;;;;5050828;28;20208;-81
2024/01/29 12:36:51;;;;;;;10.17;6.23;;;;;;;;;;5041964;28;20232;-81
2024/01/29 12:39:18;;;;;;;8.80;5.93;;;;;;;;;;5041947;28;20206;-81
2024/01/29 12:41:47;;;;;;;12.13;7.63;;;;;;;;;;5049947;28;20232;-81
2024/01/29 12:44:14;;;;;;;8.13;6.77;;;;;;;;;;5050488;28;20255;-81
2024/01/29 12:46:41;;;;;;;9.33;5.87;;;;;;;;;;5049790;28;20233;-81
2024/01/29 12:49:08;;;;;;;8.77;6.43;;;;;;;;;;5050323;28;20207;-81
2024/01/29 12:51:35;;;;;;;10.17;6.27;;;;;;;;;;5050367;28;20317;-81
2024/01/29 12:54:02;;;;;;;9.63;6.50;;;;;;;;;;5054258;28;20205;-81
2024/01/29 12:56:31;;;;;;;7.00;5.77;;;;;;;;;;5042796;28;20280;-81
2024/01/29 12:59:01;;;;;;;7.87;6.20;;;;;;;;;;5049026;28;20834;-84
2024/01/29 13:01:28;;;;;;;16.60;6.50;;;;;;;;;;5053463;28;20601;-84
2024/01/29 13:03:55;;;;;;;7.67;6.50;;;;;;;;;;5054391;28;20572;-81
2024/01/29 13:06:22;;;;;;;9.53;6.67;;;;;;;;;;5053964;28;20227;-81
2024/01/29 13:08:49;;;;;;;9.10;5.83;;;;;;;;;;5052184;28;20210;-81
2024/01/29 13:11:16;;;;;;;10.43;6.40;;;;;;;;;;5051492;28;20229;-81
2024/01/29 13:13:44;;;;;;;11.57;6.13;;;;;;;;;;5052832;28;20205;-81
2024/01/29 13:16:12;;;;;;;9.83;6.43;;;;;;;;;;5044149;28;20252;-81
2024/01/29 13:18:39;;;;;;;7.13;6.13;;;;;;;;;;5052157;28;20210;-81
2024/01/29 13:21:06;;;;;;;6.90;5.40;;;;;;;;;;5051548;28;20244;-82
2024/01/29 13:23:33;;;;;;;11.23;6.47;;;;;;;;;;5052374;28;20661;-80
2024/01/29 13:26:00;;;;;;;8.77;6.10;;;;;;;;;;5051458;28;20229;-81
2024/01/29 13:28:27;;;;;;;10.43;6.23;;;;;;;;;;5052432;28;20198;-81
2024/01/29 13:30:55;;;;;;;8.50;5.97;;;;;;;;;;5052235;28;20237;-81
2024/01/29 13:33:24;;;;;;;7.50;6.37;;;;;;;;;;5053265;28;20245;-81
2024/01/29 13:35:51;;;;;;;10.50;6.40;;;;;;;;;;5052744;28;20782;-81
2024/01/29 13:38:20;;;;;;;12.87;5.97;;;;;;;;;;5053635;28;20209;-81
2024/01/29 13:40:48;;;;;;;7.87;6.30;;;;;;;;;;5052614;28;20237;-81
2024/01/29 13:43:15;;;;;;;7.27;6.10;;;;;;;;;;5053218;28;20761;-81
2024/01/29 13:45:43;;;;;;;7.67;6.20;;;;;;;;;;5052486;28;20295;-80
2024/01/29 13:48:10;;;;;;;13.27;6.87;;;;;;;;;;5053106;28;20202;-82
2024/01/29 13:50:38;;;;;;;7.43;5.67;;;;;;;;;;5052232;28;20238;-81
2024/01/29 13:53:06;;;;;;;9.47;6.33;;;;;;;;;;5053251;28;20230;-82
2024/01/29 13:55:34;;;;;;;14.10;6.57;;;;;;;;;;5054403;28;20268;-81
2024/01/29 13:58:01;;;;;;;11.00;6.10;;;;;;;;;;5054116;28;20229;-81
2024/01/29 14:00:28;;;;;;;7.03;5.83;;;;;;;;;;5052031;28;20242;-82
2024/01/29 14:02:55;;;;;;;7.77;5.70;;;;;;;;;;5053266;28;20316;-81
2024/01/29 14:05:22;;;;;;;8.93;5.97;;;;;;;;;;5052529;28;20225;-81
2024/01/29 14:07:50;;;;;;;6.90;5.63;;;;;;;;;;5047191;28;20241;-81
2024/01/29 14:10:17;;;;;;;8.90;6.67;;;;;;;;;;5051370;28;20257;-81
2024/01/29 14:12:44;;;;;;;8.23;6.40;;;;;;;;;;5052081;28;20305;-82
2024/01/29 14:15:12;;;;;;;9.37;6.77;;;;;;;;;;5051393;28;20213;-82
2024/01/29 14:17:39;;;;;;;9.60;6.40;;;;;;;;;;5052176;28;20669;-82
2024/01/29 14:20:07;;;;;;;6.97;6.23;;;;;;;;;;5051518;28;20216;-81
2024/01/29 14:22:34;;;;;;;6.93;5.37;;;;;;;;;;5052233;28;20794;-82
2024/01/29 14:25:05;;;;;;;7.43;6.17;;;;;;;;;;5052552;28;20222;-81
2024/01/29 14:27:32;;;;;;;8.47;5.77;;;;;;;;;;5051920;28;20245;-82
2024/01/29 14:30:00;;;;;;;7.27;5.80;;;;;;;;;;5051793;28;20664;-82
2024/01/29 14:32:28;;;;;;;6.60;5.83;;;;;;;;;;5051662;28;20234;-82
2024/01/29 14:34:55;;;;;;;10.73;6.27;;;;;;;;;;5052763;28;20198;-82
2024/01/29 14:37:22;;;;;;;7.23;5.77;;;;;;;;;;5051414;28;20225;-82
2024/01/29 14:39:49;;;;;;;7.17;5.87;;;;;;;;;;5051721;28;20914;-82